createdAt,value
2023-04-24T00:01:40.984Z,100.00
2023-04-24T00:04:12.003Z,100.00
2023-04-24T00:06:43.745Z,100.00
2023-04-24T00:09:12.305Z,100.00
2023-04-24T00:11:40.249Z,100.00
2023-04-24T00:14:08.086Z,100.00
2023-04-24T00:16:37.286Z,100.00
2023-04-24T00:19:06.898Z,100.00
2023-04-24T00:21:34.723Z,100.00
2023-04-24T00:24:02.533Z,100.00
2023-04-24T00:26:30.284Z,100.00
2023-04-24T00:28:58.073Z,100.00
2023-04-24T00:31:25.884Z,100.00
2023-04-24T00:33:55.022Z,100.00
2023-04-24T00:36:22.776Z,100.00
2023-04-24T00:38:51.598Z,100.00
2023-04-24T00:41:19.876Z,100.00
2023-04-24T00:43:47.689Z,100.00
2023-04-24T00:46:15.992Z,100.00
2023-04-24T00:48:45.016Z,100.00
2023-04-24T00:51:14.525Z,100.00
2023-04-24T00:53:42.274Z,100.00
2023-04-24T00:56:10.075Z,100.00
2023-04-24T00:58:37.973Z,100.00
2023-04-24T01:01:08.377Z,100.00
2023-04-24T01:03:38.318Z,100.00
2023-04-24T01:06:07.265Z,100.00
2023-04-24T01:08:38.000Z,100.00
2023-04-24T01:11:06.801Z,100.00
2023-04-24T01:13:35.490Z,100.00
2023-04-24T01:16:04.778Z,100.00
2023-04-24T01:18:33.215Z,100.00
2023-04-24T01:21:05.588Z,100.00
2023-04-24T01:23:34.748Z,100.00
2023-04-24T01:26:02.698Z,100.00
2023-04-24T01:28:30.805Z,100.00
2023-04-24T01:30:59.440Z,100.00
2023-04-24T01:33:28.007Z,100.00
2023-04-24T01:35:56.326Z,100.00
2023-04-24T01:38:24.311Z,100.00
2023-04-24T01:40:54.364Z,100.00
2023-04-24T01:43:22.438Z,100.00
2023-04-24T01:45:50.226Z,100.00
2023-04-24T01:48:18.043Z,100.00
2023-04-24T01:50:45.826Z,100.00
2023-04-24T01:53:13.840Z,100.00
2023-04-24T01:55:42.617Z,100.00
2023-04-24T01:58:11.858Z,100.00
2023-04-24T02:00:39.661Z,100.00
2023-04-24T02:03:07.573Z,100.00
2023-04-24T02:05:35.543Z,100.00
2023-04-24T02:08:04.690Z,100.00
2023-04-24T02:10:32.460Z,100.00
2023-04-24T02:13:00.657Z,100.00
2023-04-24T02:15:30.834Z,100.00
2023-04-24T02:17:58.797Z,100.00
2023-04-24T02:20:26.882Z,100.00
2023-04-24T02:22:54.706Z,100.00
2023-04-24T02:25:22.781Z,100.00
2023-04-24T02:27:50.820Z,100.00
2023-04-24T02:30:18.666Z,100.00
2023-04-24T02:32:48.231Z,100.00
2023-04-24T02:35:16.224Z,100.00
2023-04-24T02:37:44.048Z,100.00
2023-04-24T02:40:14.019Z,100.00
2023-04-24T02:42:42.495Z,100.00
2023-04-24T02:45:10.977Z,100.00
2023-04-24T02:47:38.791Z,100.00
2023-04-24T02:50:09.563Z,100.00
2023-04-24T02:52:37.641Z,100.00
2023-04-24T02:55:06.106Z,100.00
2023-04-24T02:57:33.906Z,100.00
2023-04-24T03:00:01.742Z,100.00
2023-04-24T03:02:29.810Z,100.00
2023-04-24T03:04:58.038Z,100.00
2023-04-24T03:07:27.312Z,100.00
2023-04-24T03:09:55.106Z,100.00
2023-04-24T03:12:24.736Z,100.00
2023-04-24T03:14:52.554Z,100.00
2023-04-24T03:17:20.739Z,100.00
2023-04-24T03:19:49.595Z,100.00
2023-04-24T03:22:17.460Z,100.00
2023-04-24T03:24:47.198Z,100.00
2023-04-24T03:27:17.818Z,100.00
2023-04-24T03:29:56.486Z,100.00
2023-04-24T03:32:29.650Z,100.00
2023-04-24T03:34:58.165Z,100.00
2023-04-24T03:37:27.396Z,100.00
2023-04-24T03:40:09.858Z,100.00
2023-04-24T03:42:39.457Z,100.00
2023-04-24T03:45:08.779Z,100.00
2023-04-24T03:47:39.049Z,100.00
2023-04-24T03:50:08.324Z,100.00
2023-04-24T03:52:36.671Z,100.00
2023-04-24T03:55:07.385Z,100.00
2023-04-24T03:57:41.240Z,100.00
2023-04-24T04:00:17.973Z,100.00
2023-04-24T04:02:50.156Z,100.00
2023-04-24T04:05:18.166Z,100.00
2023-04-24T04:07:46.007Z,100.00
2023-04-24T04:10:13.878Z,100.00
2023-04-24T04:12:43.027Z,100.00
2023-04-24T04:15:11.470Z,100.00
2023-04-24T04:17:39.976Z,100.00
2023-04-24T04:20:10.457Z,100.00
2023-04-24T04:22:39.826Z,100.00
2023-04-24T04:25:10.963Z,100.00
2023-04-24T04:27:39.803Z,100.00
2023-04-24T04:30:13.434Z,100.00
2023-04-24T04:32:50.578Z,100.00
2023-04-24T04:35:18.496Z,100.00
2023-04-24T04:37:46.616Z,100.00
2023-04-24T04:40:27.340Z,100.00
2023-04-24T04:42:59.882Z,100.00
2023-04-24T04:45:33.694Z,100.00
2023-04-24T04:48:20.573Z,100.00
2023-04-24T04:50:48.506Z,100.00
2023-04-24T04:53:16.610Z,100.00
2023-04-24T04:55:44.552Z,100.00
2023-04-24T04:58:15.720Z,100.00
2023-04-24T05:00:46.190Z,100.00
2023-04-24T05:03:27.075Z,100.00
2023-04-24T05:06:01.083Z,100.00
2023-04-24T05:08:30.787Z,100.00
2023-04-24T05:10:58.615Z,100.00
2023-04-24T05:13:39.306Z,100.00
2023-04-24T05:16:18.611Z,100.00
2023-04-24T05:18:46.778Z,100.00
2023-04-24T05:21:17.873Z,100.00
2023-04-24T05:23:49.315Z,100.00
2023-04-24T05:26:24.520Z,100.00
2023-04-24T05:28:52.400Z,100.00
2023-04-24T05:31:22.121Z,100.00
2023-04-24T05:33:50.818Z,100.00
2023-04-24T05:36:18.693Z,100.00
2023-04-24T05:38:46.524Z,100.00
2023-04-24T05:41:14.302Z,100.00
2023-04-24T05:43:43.176Z,100.00
2023-04-24T05:46:11.149Z,100.00
2023-04-24T05:48:41.875Z,100.00
2023-04-24T05:51:09.647Z,100.00
2023-04-24T05:53:37.647Z,100.00
2023-04-24T05:56:05.806Z,100.00
2023-04-24T05:58:34.006Z,100.00
2023-04-24T06:01:02.640Z,100.00
2023-04-24T06:03:30.848Z,100.00
2023-04-24T06:06:00.097Z,100.00
2023-04-24T06:08:27.972Z,100.00
2023-04-24T06:10:55.787Z,100.00
2023-04-24T06:13:24.066Z,100.00
2023-04-24T06:16:20.949Z,100.00
2023-04-24T06:18:56.158Z,100.00
2023-04-24T06:21:25.313Z,100.00
2023-04-24T06:23:53.184Z,100.00
2023-04-24T06:26:20.989Z,100.00
2023-04-24T06:28:48.775Z,100.00
2023-04-24T06:31:16.993Z,100.00
2023-04-24T06:33:45.004Z,100.00
2023-04-24T06:36:12.951Z,100.00
2023-04-24T06:38:42.157Z,100.00
2023-04-24T06:41:09.927Z,100.00
2023-04-24T06:43:37.776Z,100.00
2023-04-24T06:46:05.686Z,100.00
2023-04-24T06:48:33.542Z,100.00
2023-04-24T06:51:04.519Z,100.00
2023-04-24T06:53:32.365Z,100.00
2023-04-24T06:56:01.510Z,100.00
2023-04-24T06:58:29.307Z,100.00
2023-04-24T07:00:57.088Z,100.00
2023-04-24T07:03:25.092Z,100.00
2023-04-24T07:05:54.293Z,100.00
2023-04-24T07:08:23.010Z,100.00
2023-04-24T07:10:52.400Z,100.00
2023-04-24T07:13:21.515Z,100.00
2023-04-24T07:15:51.282Z,100.00
2023-04-24T07:18:19.374Z,100.00
2023-04-24T07:20:47.125Z,100.00
2023-04-24T07:23:14.934Z,100.00
2023-04-24T07:25:42.741Z,100.00
2023-04-24T07:28:10.558Z,100.00
2023-04-24T07:30:39.901Z,100.00
2023-04-24T07:33:07.925Z,100.00
2023-04-24T07:35:36.389Z,100.00
2023-04-24T07:38:04.299Z,100.00
2023-04-24T07:40:32.111Z,100.00
2023-04-24T07:42:59.896Z,100.00
2023-04-24T07:45:29.124Z,100.00
2023-04-24T07:47:58.503Z,100.00
2023-04-24T07:50:26.329Z,100.00
2023-04-24T07:52:54.164Z,100.00
2023-04-24T07:55:24.180Z,100.00
2023-04-24T07:57:53.707Z,100.00
2023-04-24T08:00:22.336Z,100.00
2023-04-24T08:02:50.418Z,100.00
2023-04-24T08:05:19.965Z,100.00
2023-04-24T08:07:49.699Z,100.00
2023-04-24T08:10:17.548Z,100.00
2023-04-24T08:12:45.341Z,100.00
2023-04-24T08:15:13.157Z,100.00
2023-04-24T08:17:41.295Z,100.00
2023-04-24T08:20:14.392Z,100.00
2023-04-24T08:22:44.195Z,100.00
2023-04-24T08:25:12.828Z,100.00
2023-04-24T08:27:40.812Z,100.00
2023-04-24T08:30:09.380Z,100.00
2023-04-24T08:32:38.387Z,100.00
2023-04-24T08:35:06.933Z,100.00
2023-04-24T08:37:34.842Z,100.00
2023-04-24T08:40:08.772Z,100.00
2023-04-24T08:42:39.097Z,100.00
2023-04-24T08:45:07.992Z,100.00
2023-04-24T08:47:37.286Z,100.00
2023-04-24T08:50:06.847Z,100.00
2023-04-24T08:52:34.829Z,100.00
2023-04-24T08:55:04.003Z,100.00
2023-04-24T08:57:33.205Z,100.00
2023-04-24T09:00:02.457Z,100.00
2023-04-24T09:02:32.551Z,100.00
2023-04-24T09:05:00.788Z,100.00
2023-04-24T09:07:31.298Z,100.00
2023-04-24T09:10:00.221Z,100.00
2023-04-24T09:12:29.413Z,100.00
2023-04-24T09:14:58.487Z,100.00
2023-04-24T09:17:28.055Z,100.00
2023-04-24T09:19:55.987Z,100.00
2023-04-24T09:22:23.932Z,100.00
2023-04-24T09:25:03.695Z,100.00
2023-04-24T09:27:33.239Z,100.00
2023-04-24T09:30:01.603Z,100.00
2023-04-24T09:32:30.998Z,100.00
2023-04-24T09:35:10.759Z,100.00
2023-04-24T09:37:39.843Z,100.00
2023-04-24T09:40:13.286Z,100.00
2023-04-24T09:42:45.171Z,100.00
2023-04-24T09:45:15.652Z,99.76
2023-04-24T09:47:44.314Z,98.96
2023-04-24T09:50:14.457Z,97.60
2023-04-24T09:52:44.714Z,96.12
2023-04-24T09:55:19.150Z,92.23
2023-04-24T09:57:52.775Z,90.48
2023-04-24T10:00:23.586Z,91.01
2023-04-24T10:03:01.819Z,91.37
2023-04-24T10:05:31.135Z,91.58
2023-04-24T10:08:00.240Z,91.88
2023-04-24T10:10:28.727Z,90.49
2023-04-24T10:12:58.688Z,90.80
2023-04-24T10:15:27.930Z,90.90
2023-04-24T10:17:55.921Z,92.14
2023-04-24T10:20:25.612Z,91.39
2023-04-24T10:22:55.075Z,89.58
2023-04-24T10:25:24.831Z,90.66
2023-04-24T10:27:53.804Z,90.51
2023-04-24T10:30:22.981Z,89.49
2023-04-24T10:32:50.782Z,90.07
2023-04-24T10:35:23.118Z,89.56
2023-04-24T10:37:54.740Z,89.03
2023-04-24T10:40:28.725Z,88.33
2023-04-24T10:42:59.032Z,86.23
2023-04-24T10:45:28.456Z,84.74
2023-04-24T10:48:00.438Z,85.20
2023-04-24T10:50:29.174Z,85.13
2023-04-24T10:53:08.039Z,85.40
2023-04-24T10:55:44.324Z,83.94
2023-04-24T10:58:12.544Z,84.74
2023-04-24T11:00:42.609Z,85.14
2023-04-24T11:03:26.609Z,84.82
2023-04-24T11:05:59.052Z,84.68
2023-04-24T11:08:30.015Z,84.00
2023-04-24T11:11:03.537Z,84.30
2023-04-24T11:14:05.182Z,84.93
2023-04-24T11:16:36.147Z,85.04
2023-04-24T11:19:06.379Z,85.35
2023-04-24T11:21:40.650Z,85.98
2023-04-24T11:24:28.642Z,87.60
2023-04-24T11:26:57.723Z,88.27
2023-04-24T11:29:40.065Z,88.88
2023-04-24T11:32:20.336Z,89.86
2023-04-24T11:34:49.821Z,90.65
2023-04-24T11:37:18.179Z,90.53
2023-04-24T11:39:46.107Z,89.65
2023-04-24T11:42:16.838Z,89.74
2023-04-24T11:44:45.844Z,88.35
2023-04-24T11:47:13.623Z,87.81
2023-04-24T11:49:42.774Z,85.21
2023-04-24T11:52:11.692Z,83.80
2023-04-24T11:54:39.581Z,81.55
2023-04-24T11:57:08.355Z,79.72
2023-04-24T11:59:39.707Z,77.88
2023-04-24T12:02:08.118Z,77.80
2023-04-24T12:04:43.688Z,74.38
2023-04-24T12:07:12.212Z,74.08
2023-04-24T12:09:43.939Z,73.88
2023-04-24T12:12:13.236Z,73.81
2023-04-24T12:14:50.513Z,73.61
2023-04-24T12:17:18.361Z,75.32
2023-04-24T12:19:51.657Z,73.88
2023-04-24T12:22:19.480Z,74.28
2023-04-24T12:25:01.549Z,75.39
2023-04-24T12:27:32.206Z,74.76
2023-04-24T12:30:00.928Z,74.00
2023-04-24T12:32:28.976Z,73.93
2023-04-24T12:34:58.882Z,75.41
2023-04-24T12:37:27.655Z,75.15
2023-04-24T12:40:02.726Z,73.74
2023-04-24T12:42:32.309Z,73.16
2023-04-24T12:45:01.744Z,70.79
2023-04-24T12:47:30.080Z,70.94
2023-04-24T12:49:59.320Z,71.33
2023-04-24T12:52:28.361Z,70.35
2023-04-24T12:54:57.927Z,71.27
2023-04-24T12:57:26.354Z,71.80
2023-04-24T12:59:55.898Z,71.92
2023-04-24T13:02:24.071Z,73.74
2023-04-24T13:04:52.456Z,74.44
2023-04-24T13:07:21.798Z,75.40
2023-04-24T13:09:50.947Z,75.58
2023-04-24T13:12:19.730Z,77.34
2023-04-24T13:14:48.013Z,77.99
2023-04-24T13:17:16.107Z,78.33
2023-04-24T13:19:45.863Z,77.27
2023-04-24T13:22:14.648Z,76.22
2023-04-24T13:24:43.773Z,76.30
2023-04-24T13:27:11.592Z,75.92
2023-04-24T13:29:39.532Z,74.39
2023-04-24T13:32:07.862Z,74.33
2023-04-24T13:34:37.790Z,72.67
2023-04-24T13:37:06.482Z,72.82
2023-04-24T13:39:34.419Z,72.13
2023-04-24T13:42:04.915Z,71.03
2023-04-24T13:44:33.337Z,71.01
2023-04-24T13:47:01.445Z,70.25
2023-04-24T13:49:29.652Z,69.02
2023-04-24T13:51:58.048Z,70.06
2023-04-24T13:54:26.977Z,68.93
2023-04-24T13:56:55.207Z,68.69
2023-04-24T13:59:24.368Z,67.34
2023-04-24T14:01:52.218Z,66.98
2023-04-24T14:04:20.224Z,65.79
2023-04-24T14:06:48.173Z,65.37
2023-04-24T14:09:16.187Z,64.55
2023-04-24T14:11:44.056Z,64.39
2023-04-24T14:14:12.505Z,62.60
2023-04-24T14:16:41.722Z,62.24
2023-04-24T14:19:09.498Z,62.87
2023-04-24T14:21:37.260Z,62.58
2023-04-24T14:24:05.243Z,63.14
2023-04-24T14:26:33.145Z,63.51
2023-04-24T14:31:31.810Z,63.88
2023-04-24T14:34:01.157Z,63.95
2023-04-24T14:36:28.950Z,64.68
2023-04-24T14:38:56.801Z,64.76
2023-04-24T14:41:24.594Z,65.23
2023-04-24T14:43:52.350Z,65.89
2023-04-24T14:46:20.339Z,65.57
2023-04-24T14:48:48.155Z,66.39
2023-04-24T14:51:17.322Z,66.09
2023-04-24T14:53:47.883Z,65.82
2023-04-24T14:56:15.981Z,65.86
2023-04-24T14:58:43.846Z,65.14
2023-04-24T15:01:12.402Z,66.51
2023-04-24T15:03:40.412Z,65.96
2023-04-24T15:06:08.508Z,66.79
2023-04-24T15:08:37.680Z,66.71
2023-04-24T15:11:05.611Z,66.90
2023-04-24T15:13:33.512Z,67.51
2023-04-24T15:16:01.481Z,69.71
2023-04-24T15:18:30.259Z,71.94
2023-04-24T15:20:58.502Z,73.55
2023-04-24T15:23:26.292Z,75.08
2023-04-24T15:25:55.719Z,73.93
2023-04-24T15:28:23.918Z,73.65
2023-04-24T15:30:51.728Z,73.34
2023-04-24T15:33:19.508Z,74.26
2023-04-24T15:35:47.350Z,74.02
2023-04-24T15:38:15.547Z,73.16
2023-04-24T15:40:43.325Z,73.04
2023-04-24T15:43:12.959Z,72.25
2023-04-24T15:45:40.843Z,71.34
2023-04-24T15:48:08.799Z,70.81
2023-04-24T15:50:36.844Z,69.34
2023-04-24T15:53:04.674Z,68.43
2023-04-24T15:55:33.584Z,67.77
2023-04-24T15:58:02.000Z,68.72
2023-04-24T16:00:34.356Z,67.79
2023-04-24T16:03:02.458Z,66.66
2023-04-24T16:05:31.030Z,65.48
2023-04-24T16:07:59.003Z,65.16
2023-04-24T16:10:27.301Z,66.17
2023-04-24T16:12:55.878Z,65.67
2023-04-24T16:15:23.922Z,65.64
2023-04-24T16:17:53.075Z,65.77
2023-04-24T16:20:20.958Z,65.33
2023-04-24T16:22:49.045Z,66.21
2023-04-24T16:25:16.901Z,66.13
2023-04-24T16:27:44.867Z,66.64
2023-04-24T16:30:13.301Z,66.72
2023-04-24T16:32:41.161Z,66.01
2023-04-24T16:35:15.470Z,64.96
2023-04-24T16:37:43.330Z,64.53
2023-04-24T16:40:12.294Z,64.75
2023-04-24T16:42:40.427Z,65.39
2023-04-24T16:45:09.735Z,66.38
2023-04-24T16:47:37.651Z,66.59
2023-04-24T16:50:06.537Z,67.49
2023-04-24T16:52:36.039Z,67.66
2023-04-24T16:55:03.852Z,68.28
2023-04-24T16:57:31.604Z,68.37
2023-04-24T16:59:59.451Z,68.96
2023-04-24T17:02:28.307Z,69.01
2023-04-24T17:04:57.020Z,68.85
2023-04-24T17:07:24.859Z,68.42
2023-04-24T17:09:54.653Z,69.35
2023-04-24T17:12:22.450Z,69.22
2023-04-24T17:14:50.218Z,69.05
2023-04-24T17:17:20.114Z,69.26
2023-04-24T17:19:47.992Z,69.62
2023-04-24T17:22:15.780Z,70.00
2023-04-24T17:24:43.591Z,70.35
2023-04-24T17:27:15.366Z,71.20
2023-04-24T17:29:43.433Z,71.37
2023-04-24T17:32:11.412Z,71.69
2023-04-24T17:34:39.411Z,71.91
2023-04-24T17:37:07.215Z,71.76
2023-04-24T17:39:35.025Z,71.70
2023-04-24T17:42:03.096Z,71.95
2023-04-24T17:44:32.248Z,72.20
2023-04-24T17:47:00.077Z,71.16
2023-04-24T17:49:27.881Z,71.04
2023-04-24T17:51:55.705Z,71.20
2023-04-24T17:54:23.493Z,71.60
2023-04-24T17:56:52.810Z,71.56
2023-04-24T17:59:20.637Z,71.70
2023-04-24T18:01:49.754Z,71.99
2023-04-24T18:04:18.529Z,72.87
2023-04-24T18:06:46.519Z,72.64
2023-04-24T18:09:15.765Z,73.05
2023-04-24T18:11:43.764Z,73.31
2023-04-24T18:14:11.583Z,73.70
2023-04-24T18:16:39.389Z,73.56
2023-04-24T18:19:08.551Z,74.46
2023-04-24T18:21:36.395Z,74.49
2023-04-24T18:24:04.345Z,74.95
2023-04-24T18:26:32.105Z,75.43
2023-04-24T18:28:59.895Z,75.57
2023-04-24T18:31:28.105Z,75.32
2023-04-24T18:33:56.001Z,75.58
2023-04-24T18:36:25.146Z,75.90
2023-04-24T18:38:52.913Z,76.49
2023-04-24T18:41:20.715Z,76.70
2023-04-24T18:43:48.852Z,76.86
2023-04-24T18:46:16.662Z,77.55
2023-04-24T18:48:44.637Z,77.69
2023-04-24T18:51:12.461Z,77.49
2023-04-24T18:53:41.690Z,77.47
2023-04-24T18:56:09.480Z,77.93
2023-04-24T18:58:37.340Z,78.05
2023-04-24T19:01:07.486Z,78.18
2023-04-24T19:03:36.204Z,78.08
2023-04-24T19:06:04.097Z,78.84
2023-04-24T19:08:31.897Z,78.69
2023-04-24T19:11:01.284Z,79.20
2023-04-24T19:13:29.388Z,79.23
2023-04-24T19:15:57.161Z,79.29
2023-04-24T19:18:26.309Z,79.75
2023-04-24T19:20:54.141Z,79.45
2023-04-24T19:23:21.985Z,79.98
2023-04-24T19:25:49.825Z,80.21
2023-04-24T19:28:18.987Z,79.98
2023-04-24T19:30:47.049Z,80.26
2023-04-24T19:33:15.040Z,80.42
2023-04-24T19:35:45.867Z,80.33
2023-04-24T19:38:13.651Z,80.58
2023-04-24T19:40:41.448Z,80.73
2023-04-24T19:43:09.249Z,81.40
2023-04-24T19:45:38.531Z,81.77
2023-04-24T19:48:06.916Z,81.96
2023-04-24T19:50:35.075Z,82.16
2023-04-24T19:53:02.819Z,82.73
2023-04-24T19:55:31.382Z,83.22
2023-04-24T19:57:59.205Z,83.61
2023-04-24T20:00:26.999Z,84.23
2023-04-24T20:02:56.650Z,84.83
2023-04-24T20:05:24.728Z,85.01
2023-04-24T20:07:52.619Z,85.66
2023-04-24T20:10:20.488Z,86.03
2023-04-24T20:12:48.321Z,86.52
2023-04-24T20:15:16.170Z,86.60
2023-04-24T20:17:44.011Z,86.93
2023-04-24T20:20:13.894Z,87.22
2023-04-24T20:22:41.740Z,87.62
2023-04-24T20:25:11.484Z,88.36
2023-04-24T20:27:39.411Z,88.92
2023-04-24T20:30:12.750Z,89.23
2023-04-24T20:32:41.037Z,89.63
2023-04-24T20:35:09.659Z,90.24
2023-04-24T20:37:39.015Z,91.21
2023-04-24T20:40:09.748Z,91.88
2023-04-24T20:42:38.340Z,92.47
2023-04-24T20:45:08.141Z,93.23
2023-04-24T20:47:36.790Z,93.37
2023-04-24T20:50:06.221Z,94.22
2023-04-24T20:52:34.037Z,94.30
2023-04-24T20:55:03.658Z,94.70
2023-04-24T20:57:32.114Z,95.06
2023-04-24T20:59:59.980Z,95.50
2023-04-24T21:02:27.915Z,95.56
2023-04-24T21:04:55.872Z,96.16
2023-04-24T21:07:23.712Z,96.26
2023-04-24T21:09:51.706Z,97.01
2023-04-24T21:12:20.935Z,97.30
2023-04-24T21:14:50.932Z,97.81
2023-04-24T21:17:19.201Z,98.14
2023-04-24T21:19:47.029Z,98.56
2023-04-24T21:22:14.813Z,98.75
2023-04-24T21:24:42.586Z,98.92
2023-04-24T21:27:10.337Z,99.30
2023-04-24T21:29:39.530Z,99.31
2023-04-24T21:32:07.388Z,99.72
2023-04-24T21:34:35.232Z,99.97
2023-04-24T21:37:03.032Z,100.00
2023-04-24T21:39:30.843Z,100.00
2023-04-24T21:41:58.975Z,100.00
2023-04-24T21:44:26.888Z,99.82
2023-04-24T21:46:56.026Z,99.89
2023-04-24T21:49:23.851Z,99.76
2023-04-24T21:51:51.626Z,99.65
2023-04-24T21:54:20.534Z,99.50
2023-04-24T21:56:48.343Z,99.33
2023-04-24T21:59:16.158Z,99.12
2023-04-24T22:01:44.438Z,98.92
2023-04-24T22:04:13.910Z,98.54
2023-04-24T22:06:42.180Z,98.39
2023-04-24T22:09:10.944Z,98.39
2023-04-24T22:11:38.819Z,98.62
2023-04-24T22:14:07.203Z,99.05
2023-04-24T22:16:35.298Z,98.89
2023-04-24T22:19:04.920Z,99.07
2023-04-24T22:21:34.372Z,99.17
2023-04-24T22:24:02.164Z,99.12
2023-04-24T22:26:29.933Z,99.22
2023-04-24T22:28:57.767Z,99.21
2023-04-24T22:31:25.647Z,99.49
2023-04-24T22:33:53.693Z,99.29
2023-04-24T22:36:21.472Z,99.42
2023-04-24T22:38:50.682Z,99.21
2023-04-24T22:41:18.531Z,99.27
2023-04-24T22:43:46.497Z,98.91
2023-04-24T22:46:14.764Z,98.90
2023-04-24T22:48:42.555Z,98.94
2023-04-24T22:51:10.692Z,98.94
2023-04-24T22:53:38.487Z,98.80
2023-04-24T22:56:08.417Z,98.59
2023-04-24T22:58:36.200Z,98.74
2023-04-24T23:01:04.206Z,98.70
2023-04-24T23:03:33.148Z,98.43
2023-04-24T23:06:01.102Z,98.66
2023-04-24T23:08:30.598Z,98.43
2023-04-24T23:10:58.714Z,98.49
2023-04-24T23:13:28.182Z,98.23
2023-04-24T23:15:55.998Z,98.31
2023-04-24T23:18:23.773Z,98.32
2023-04-24T23:20:51.869Z,98.17
2023-04-24T23:23:19.814Z,98.05
2023-04-24T23:25:47.587Z,97.92
2023-04-24T23:28:15.352Z,98.02
2023-04-24T23:30:44.505Z,98.03
2023-04-24T23:33:12.417Z,97.98
2023-04-24T23:35:40.531Z,98.06
2023-04-24T23:38:08.341Z,97.91
2023-04-24T23:40:36.185Z,98.12
2023-04-24T23:43:08.206Z,97.97
2023-04-24T23:45:37.028Z,98.01
2023-04-24T23:48:06.621Z,97.96
2023-04-24T23:50:34.624Z,97.84
2023-04-24T23:53:02.651Z,97.89
2023-04-24T23:55:30.527Z,97.80
2023-04-24T23:57:58.310Z,97.73
